Latest Weather Observations for Temora

IDN60801

Issued at 6:23 pm EST Saturday 9 May 2026 (issued every 10 minutes, with the page automatically refreshed every 10 minutes)

About weather observations | Map of weather stations | Latest weather observations for NSW | Other Formats
Station Details ID: 073151 Name: TEMORA AIRPORT Lat: -34.43 Lon: 147.51 Height: 280.5 m
Data from the previous 72 hours. | See also: Recent months at Temora
Date/Time
EST
Temp
°C
App
Temp
°C
Dew
Point
°C
Rel
Hum
%
Delta-T
°C
Wind Press
QNH
hPa
Press
MSL
hPa
Rain since
9am
mm
Dir  Spd
km/h
Gust
km/h
Spd
kts
Gust
kts
09/06:00pm 12.4 10.5 7.5 72 2.4 WSW 7 9 4 5 1025.9 1026.1 0.0
09/05:30pm 14.9 13.0 7.7 62 3.6 SSW 7 9 4 5 1025.5 1025.7 0.0
09/05:00pm 16.5 14.4 8.2 58 4.2 SSW 9 13 5 7 1025.2 1025.3 0.0
09/04:30pm 17.9 15.8 8.2 53 5.0 SSW 9 13 5 7 1025.1 1025.2 0.0
09/04:00pm 18.2 16.0 7.9 51 5.3 S 9 13 5 7 1025.1 1025.2 0.0
09/03:30pm 19.0 16.8 7.8 48 5.8 SSW 9 13 5 7 1024.9 1025.0 0.0
09/03:00pm 18.7 16.6 8.4 51 5.4 S 9 13 5 7 1024.9 1025.0 0.0
09/02:30pm 18.5 16.8 8.5 52 5.2 SW 7 11 4 6 1024.8 1024.9 0.0
09/02:00pm 18.2 16.5 8.5 53 5.1 SSW 7 11 4 6 1024.8 1024.9 0.0
09/01:30pm 17.2 15.6 8.9 58 4.4 SE 7 13 4 7 1025.1 1025.2 0.0
09/01:00pm 17.2 15.6 8.6 57 4.5 SSE 7 11 4 6 1025.4 1025.5 0.0
09/12:30pm 16.5 14.8 8.5 59 4.1 SSW 7 11 4 6 1025.9 1026.1 0.0
09/12:00pm 16.5 15.1 9.4 63 3.7 W 7 11 4 6 1026.4 1026.5 0.0
09/11:30am 15.7 14.6 8.4 62 3.8 SSW 4 11 2 6 1026.7 1026.8 0.0
09/11:00am 15.1 13.6 9.0 67 3.1 SSW 7 9 4 5 1027.0 1027.1 0.0
09/10:30am 13.7 12.6 8.3 70 2.7 ESE 4 7 2 4 1026.9 1027.0 0.0
09/10:00am 12.7 11.3 8.8 77 2.0 SSE 6 9 3 5 1027.0 1027.1 0.0
09/09:30am 11.5 10.2 9.2 86 1.2 S 6 9 3 5 1027.0 1027.1 0.0
09/09:00am 9.7 8.1 8.9 95 0.4 S 7 11 4 6 1027.1 1027.2 0.0
09/08:30am 8.3 7.5 8.3 100 0.0 SE 2 7 1 4 1026.9 1027.0 0.0
09/08:00am 6.6 5.8 6.6 100 0.0 CALM 0 0 0 0 1026.4 1026.5 0.0
09/07:30am 4.2 1.8 4.1 99 0.0 NE 6 7 3 4 1025.9 1026.1 0.0
09/07:00am 2.9 1.0 2.8 99 0.0 SW 2 6 1 3 1025.6 1025.8 0.0
09/06:30am 2.5 -0.2 2.4 99 0.0 SW 6 7 3 4 1025.4 1025.5 0.0
09/06:00am 3.8 2.4 3.7 99 0.0 CALM 0 0 0 0 1025.0 1025.1 0.0
09/05:30am 3.6 2.2 3.5 99 0.0 CALM 0 0 0 0 1024.7 1024.8 0.0
09/05:00am 3.5 0.9 3.4 99 0.0 SSE 6 6 3 3 1024.7 1024.8 0.0
09/04:30am 3.3 1.8 3.2 99 0.0 CALM 0 0 0 0 1024.5 1024.6 0.0
09/04:00am 3.7 2.3 3.6 99 0.0 CALM 0 0 0 0 1024.4 1024.5 0.0
09/03:30am 3.5 1.7 3.4 99 0.0 SW 2 7 1 4 1024.4 1024.5 0.0
09/03:00am 3.8 2.4 3.7 99 0.0 CALM 0 0 0 0 1024.5 1024.6 0.0
09/02:30am 5.3 3.8 5.2 99 0.0 S 2 6 1 3 1024.7 1024.8 0.0
09/02:00am 4.6 2.2 4.5 99 0.0 WSW 6 7 3 4 1024.7 1024.8 0.0
09/01:30am 4.8 3.2 4.7 99 0.0 WSW 2 6 1 3 1024.8 1024.9 0.0
09/01:00am 5.4 3.2 5.3 99 0.0 SW 6 9 3 5 1024.6 1024.7 0.0
09/12:30am 5.2 3.0 5.1 99 0.0 NNE 6 9 3 5 1024.5 1024.6 0.0
09/12:00am 5.6 4.5 5.0 96 0.3 CALM 0 0 0 0 1024.5 1024.6 0.0
 
Date/Time
EST
Temp
°C
App
Temp
°C
Dew
Point
°C
Rel
Hum
%
Delta-T
°C
Wind Press
QNH
hPa
Press
MSL
hPa
Rain since
9am
mm
Dir  Spd
km/h
Gust
km/h
Spd
kts
Gust
kts
08/11:30pm 6.2 5.1 5.3 94 0.4 CALM 0 0 0 0 1024.6 1024.7 0.0
08/11:00pm 7.4 6.7 6.8 96 0.3 CALM 0 6 0 3 1024.7 1024.8 0.0
08/10:30pm 7.1 4.7 7.0 99 0.0 WSW 9 11 5 6 1024.8 1024.9 0.0
08/10:00pm 6.9 4.9 6.2 95 0.3 WNW 6 7 3 4 1024.9 1025.0 0.0
08/09:30pm 6.8 5.8 5.4 91 0.6 CALM 0 0 0 0 1024.8 1024.9 0.0
08/09:00pm 8.3 7.5 6.6 89 0.8 CALM 0 0 0 0 1024.6 1024.7 0.0
08/08:30pm 9.2 7.5 7.5 89 0.8 W 6 9 3 5 1024.6 1024.7 0.0
08/08:00pm 8.3 5.7 6.3 87 0.9 W 9 13 5 7 1024.3 1024.4 0.0
08/07:30pm 9.3 7.7 6.2 81 1.5 NNE 4 7 2 4 1024.2 1024.3 0.0
08/07:00pm 11.2 9.1 6.7 74 2.2 WSW 7 9 4 5 1024.1 1024.2 0.0
08/06:30pm 11.9 9.5 7.0 72 2.4 WSW 9 13 5 7 1023.8 1023.9 0.0
08/06:00pm 12.4 10.5 6.7 68 2.8 WSW 6 9 3 5 1023.7 1023.8 0.0
08/05:30pm 13.5 9.6 7.3 66 3.1 WSW 17 20 9 11 1023.3 1023.4 0.0
08/05:00pm 14.8 11.3 7.4 61 3.7 WSW 15 24 8 13 1023.1 1023.2 0.0
08/04:30pm 15.2 10.3 7.0 58 4.1 WSW 22 33 12 18 1022.7 1022.8 0.0
08/04:00pm 15.6 11.4 7.4 58 4.1 WSW 19 28 10 15 1022.6 1022.7 0.0
08/03:30pm 15.5 10.4 7.5 59 4.0 WSW 24 32 13 17 1022.6 1022.7 0.0
08/03:00pm 15.7 11.3 7.5 58 4.1 SW 20 33 11 18 1022.4 1022.4 0.0
08/02:30pm 15.1 10.9 8.3 64 3.5 SW 20 33 11 18 1022.4 1022.4 0.0
08/02:00pm 15.1 11.0 8.6 65 3.3 WSW 20 35 11 19 1022.5 1022.5 0.0
08/01:30pm 14.5 10.0 8.7 68 3.0 WSW 22 35 12 19 1022.6 1022.7 0.0
08/01:00pm 14.2 9.7 8.6 69 2.9 WSW 22 33 12 18 1022.6 1022.7 0.0
08/12:30pm 13.5 9.3 8.4 71 2.6 WSW 20 30 11 16 1023.1 1023.2 0.0
08/12:00pm 12.9 8.7 8.2 73 2.4 WSW 20 32 11 17 1023.4 1023.5 0.0
08/11:30am 12.8 8.8 8.1 73 2.4 WSW 19 28 10 15 1023.7 1023.8 0.0
08/11:00am 12.1 8.0 7.8 75 2.1 WSW 19 30 10 16 1024.1 1024.2 0.0
08/10:30am 12.1 7.0 7.8 75 2.1 WSW 24 33 13 18 1024.0 1024.1 0.0
08/10:00am 11.9 6.8 7.6 75 2.1 W 24 32 13 17 1024.0 1024.1 0.0
08/09:30am 11.5 7.1 7.4 76 2.0 W 20 32 11 17 1024.1 1024.2 0.0
08/09:00am 10.4 5.7 7.8 84 1.3 W 22 32 12 17 1023.9 1024.0 0.0
08/08:30am 9.3 4.7 6.6 83 1.3 W 20 28 11 15 1023.8 1023.9 0.0
08/08:00am 9.1 4.6 6.2 82 1.3 W 19 24 10 13 1023.9 1024.0 0.0
08/07:30am 8.8 4.6 5.9 82 1.3 WSW 17 24 9 13 1023.8 1023.9 0.0
08/07:00am 8.3 3.6 5.2 81 1.4 W 19 26 10 14 1023.5 1023.6 0.0
08/06:30am 8.2 3.8 5.0 80 1.4 W 17 22 9 12 1023.4 1023.5 0.0
08/06:00am 8.1 3.7 4.9 80 1.4 W 17 22 9 12 1023.1 1023.2 0.0
08/05:30am 8.0 3.6 4.8 80 1.4 W 17 22 9 12 1023.3 1023.4 0.0
08/05:00am 7.2 3.5 4.5 83 1.2 W 13 20 7 11 1023.3 1023.4 0.0
08/04:30am 6.3 2.9 4.0 85 1.0 W 11 17 6 9 1023.0 1023.1 0.0
08/04:00am 7.0 4.0 4.0 81 1.3 WNW 9 13 5 7 1022.8 1022.9 0.0
08/03:30am 7.0 5.8 4.5 84 1.1 CALM 0 6 0 3 1023.2 1023.3 0.0
08/03:00am 6.0 4.0 4.3 89 0.7 NW 4 7 2 4 1023.3 1023.4 0.0
08/02:30am 5.3 2.1 3.2 86 0.9 NW 9 11 5 6 1023.2 1023.3 0.0
08/02:00am 5.9 3.1 3.4 84 1.1 NW 7 9 4 5 1023.5 1023.6 0.0
08/01:30am 6.1 2.9 3.3 82 1.2 W 9 13 5 7 1023.8 1023.9 0.0
08/01:00am 5.1 2.3 2.3 82 1.1 WNW 6 9 3 5 1023.9 1024.0 0.0
08/12:30am 5.8 2.5 2.6 80 1.3 W 9 11 5 6 1024.0 1024.1 0.0
08/12:00am 5.8 2.5 2.4 79 1.4 W 9 13 5 7 1024.5 1024.6 0.0
 
Date/Time
EST
Temp
°C
App
Temp
°C
Dew
Point
°C
Rel
Hum
%
Delta-T
°C
Wind Press
QNH
hPa
Press
MSL
hPa
Rain since
9am
mm
Dir  Spd
km/h
Gust
km/h
Spd
kts
Gust
kts
07/11:30pm 5.4 2.4 1.7 77 1.5 W 7 9 4 5 1024.5 1024.6 0.0
07/11:00pm 6.2 2.4 1.9 74 1.8 WSW 11 15 6 8 1024.5 1024.6 0.0
07/10:30pm 7.0 2.5 2.1 71 2.0 WSW 15 19 8 10 1024.6 1024.7 0.0
07/10:00pm 7.4 2.5 2.1 69 2.2 WSW 17 22 9 12 1024.7 1024.8 0.0
07/09:30pm 7.8 2.9 1.9 66 2.5 WSW 17 24 9 13 1024.6 1024.7 0.0
07/09:00pm 7.6 3.0 1.7 66 2.4 WSW 15 20 8 11 1024.4 1024.5 0.0
07/08:30pm 7.8 2.8 1.6 65 2.6 WSW 17 26 9 14 1024.3 1024.4 0.0
07/08:00pm 6.9 3.4 1.2 67 2.3 WSW 9 13 5 7 1024.4 1024.5 0.0
07/07:30pm 7.7 3.8 1.1 63 2.7 WSW 11 17 6 9 1024.1 1024.2 0.0
07/07:00pm 8.1 3.5 1.3 62 2.8 WSW 15 19 8 10 1023.8 1023.9 0.0
07/06:30pm 8.2 3.2 1.4 62 2.8 WSW 17 24 9 13 1023.6 1023.7 0.0
07/06:00pm 8.6 3.9 0.8 58 3.2 SW 15 22 8 12 1023.4 1023.5 0.0
07/05:30pm 8.9 3.8 0.9 57 3.3 SW 17 30 9 16 1023.0 1023.1 0.0
07/05:00pm 9.6 3.5 0.5 53 3.7 SW 22 32 12 17 1022.8 1022.9 0.0
07/04:30pm 9.8 3.8 0.9 54 3.7 SW 22 37 12 20 1022.6 1022.7 0.0
07/04:00pm 10.3 3.4 0.3 50 4.1 SW 26 43 14 23 1022.4 1022.4 0.0
07/03:30pm 10.7 3.4 0.2 48 4.3 SW 28 44 15 24 1022.5 1022.5 0.0
07/03:00pm 11.7 4.5 0.8 47 4.6 SW 28 39 15 21 1022.1 1022.2 0.0
07/02:31pm 11.4 4.0 1.9 52 4.1 SW 30 48 16 26 1022.0 1022.1 0.0
07/02:30pm 11.3 3.5 1.8 52 4.1 SW 32 48 17 26 1022.0 1022.1 0.0
07/02:26pm 10.5 2.9 0.8 51 4.1 SW 30 48 16 26 1022.0 1022.1 0.0
07/02:00pm 10.9 3.0 0.9 50 4.2 SW 32 46 17 25 1021.8 1021.9 0.0
07/01:30pm 11.0 4.2 1.0 50 4.2 SW 26 41 14 22 1021.8 1021.9 0.0
07/01:00pm 10.3 3.5 0.9 52 3.9 SW 26 43 14 23 1021.7 1021.8 0.0
07/12:47pm 11.4 4.6 2.9 56 3.8 WSW 28 46 15 25 1021.7 1021.8 0.0
07/12:30pm 10.5 3.1 1.6 54 3.8 WSW 30 43 16 23 1021.8 1021.9 0.0
07/12:00pm 10.4 3.4 1.8 55 3.7 WSW 28 43 15 23 1022.0 1022.1 0.0
07/11:30am 10.1 3.0 1.5 55 3.6 WSW 28 37 15 20 1022.1 1022.2 0.0
07/11:00am 9.6 2.4 0.8 54 3.6 SW 28 46 15 25 1021.9 1022.0 0.0
07/10:49am 9.5 2.4 1.4 57 3.4 SW 28 50 15 27 1022.0 1022.1 0.0
07/10:30am 9.7 2.7 1.8 58 3.4 SW 28 44 15 24 1021.7 1021.8 0.0
07/10:00am 9.3 3.6 2.9 64 2.8 SW 22 39 12 21 1021.8 1021.9 0.0
07/09:30am 8.4 1.0 2.0 64 2.7 WSW 30 43 16 23 1021.5 1021.6 0.0
07/09:00am 7.8 0.8 2.1 67 2.4 SW 28 41 15 22 1021.4 1021.5 0.0
07/08:30am 7.4 0.0 2.1 69 2.2 WSW 30 46 16 25 1021.2 1021.3 0.0
07/08:26am 7.3 0.3 1.8 68 2.3 WSW 28 46 15 25 1021.2 1021.3 0.0
07/08:00am 6.9 1.5 2.2 72 2.0 SW 20 33 11 18 1020.8 1020.9 0.0
07/07:30am 6.6 0.8 2.3 74 1.8 WSW 22 37 12 20 1020.4 1020.5 0.0
07/07:00am 6.6 1.2 2.3 74 1.8 SW 20 32 11 17 1019.7 1019.8 0.0
07/06:30am 7.3 0.9 3.0 74 1.8 SW 26 39 14 21 1019.3 1019.3 0.0
07/06:00am 8.2 2.3 3.7 73 2.0 WSW 24 44 13 24 1018.7 1018.7 0.0
07/05:41am 8.6 1.9 3.6 71 2.2 SW 28 46 15 25 1018.6 1018.6 0.0
07/05:30am 8.9 2.2 3.9 71 2.2 SW 28 43 15 23 1018.3 1018.4 0.0
07/05:00am 9.5 2.9 4.3 70 2.3 WSW 28 37 15 20 1018.1 1018.2 0.0
07/04:30am 10.0 4.2 6.2 77 1.8 WSW 26 44 14 24 1017.8 1017.9 0.0
07/04:27am 10.2 4.5 6.9 80 1.6 WSW 26 44 14 24 1017.8 1017.9 0.0
07/04:00am 10.1 6.7 9.3 95 0.4 W 17 22 9 12 1017.4 1017.5 0.0
07/03:30am 10.0 6.6 9.2 95 0.4 WNW 17 22 9 12 1017.6 1017.7 0.0
07/03:00am 10.0 7.1 8.3 89 0.8 W 13 17 7 9 1018.0 1018.1 0.0
07/02:30am 10.1 6.8 8.2 88 0.9 W 15 20 8 11 1018.2 1018.3 0.0
07/02:00am 10.3 7.6 7.5 83 1.4 WNW 11 15 6 8 1018.4 1018.5 0.0
07/01:30am 10.5 7.5 7.6 82 1.4 WNW 13 17 7 9 1018.6 1018.6 0.0
07/01:00am 10.2 7.2 7.8 85 1.2 NW 13 17 7 9 1018.7 1018.7 0.0
07/12:30am 9.8 7.2 7.6 86 1.1 WNW 11 15 6 8 1019.1 1019.1 0.0
07/12:00am 10.0 7.9 8.4 90 0.8 WNW 9 13 5 7 1019.3 1019.3 0.0
 
Date/Time
EST
Temp
°C
App
Temp
°C
Dew
Point
°C
Rel
Hum
%
Delta-T
°C
Wind Press
QNH
hPa
Press
MSL
hPa
Rain since
9am
mm
Dir  Spd
km/h
Gust
km/h
Spd
kts
Gust
kts
06/11:30pm 9.4 8.9 8.0 91 0.7 CALM 0 0 0 0 1019.4 1019.4 0.0
06/11:00pm 8.7 8.1 7.2 90 0.7 CALM 0 0 0 0 1019.6 1019.7 0.0
06/10:30pm 8.9 8.2 6.9 87 0.9 CALM 0 0 0 0 1019.9 1020.0 0.0
06/10:00pm 9.6 8.8 6.3 80 1.5 CALM 0 0 0 0 1020.1 1020.2 0.0
06/09:30pm 11.1 10.4 6.8 75 2.1 CALM 0 0 0 0 1020.2 1020.3 0.0
06/09:00pm 12.2 10.6 6.5 68 2.7 SW 4 7 2 4 1020.3 1020.4 0.0
06/08:30pm 12.7 10.2 6.5 66 3.0 SW 9 13 5 7 1020.4 1020.5 0.0
06/08:00pm 13.0 10.7 7.5 69 2.7 SW 9 13 5 7 1020.4 1020.5 0.0
06/07:30pm 13.2 10.6 7.9 70 2.7 SW 11 15 6 8 1020.4 1020.5 0.0
06/07:00pm 13.4 10.9 8.3 71 2.6 SW 11 17 6 9 1020.3 1020.4 0.0
06/06:30pm 13.5 11.0 8.1 70 2.7 SW 11 15 6 8 1020.2 1020.3 0.0

Other formats

Comma delimited format used in spreadsheet applications
http://www.bom.gov.au/fwo/IDN60801/IDN60801.95722.axf

JavaScript Object Notation format (JSON) in row-major order
http://www.bom.gov.au/fwo/IDN60801/IDN60801.95722.json

Data quality

Most of these data are generated automatically and are frequently updated. Quality checks on data are not normally performed. It is possible for incorrect values to appear. Refer to information at About Latest Weather Observations and please check the disclaimer before using these data.